sensor_id;sensor_type;location;lat;lon;timestamp;P1;durP1;ratioP1;P2;durP2;ratioP2
59930;SDS011;45790;51.538;6.736;2023-04-19T00:01:40;15.10;;;11.80;;
59930;SDS011;45790;51.538;6.736;2023-04-19T00:04:05;15.88;;;12.00;;
59930;SDS011;45790;51.538;6.736;2023-04-19T00:06:31;14.73;;;11.30;;
59930;SDS011;45790;51.538;6.736;2023-04-19T00:08:57;14.70;;;11.77;;
59930;SDS011;45790;51.538;6.736;2023-04-19T00:11:22;14.40;;;11.40;;
59930;SDS011;45790;51.538;6.736;2023-04-19T00:13:47;18.75;;;11.70;;
59930;SDS011;45790;51.538;6.736;2023-04-19T00:16:13;15.90;;;11.90;;
59930;SDS011;45790;51.538;6.736;2023-04-19T00:18:38;15.63;;;11.95;;
59930;SDS011;45790;51.538;6.736;2023-04-19T00:21:03;16.15;;;11.40;;
59930;SDS011;45790;51.538;6.736;2023-04-19T00:23:29;18.58;;;11.48;;
59930;SDS011;45790;51.538;6.736;2023-04-19T00:25:54;16.30;;;11.27;;
59930;SDS011;45790;51.538;6.736;2023-04-19T00:28:19;12.63;;;10.03;;
59930;SDS011;45790;51.538;6.736;2023-04-19T00:30:45;17.10;;;11.70;;
59930;SDS011;45790;51.538;6.736;2023-04-19T00:33:10;14.97;;;11.43;;
59930;SDS011;45790;51.538;6.736;2023-04-19T00:35:39;17.75;;;10.75;;
59930;SDS011;45790;51.538;6.736;2023-04-19T00:38:06;18.38;;;11.45;;
59930;SDS011;45790;51.538;6.736;2023-04-19T00:40:31;19.35;;;11.85;;
59930;SDS011;45790;51.538;6.736;2023-04-19T00:42:56;16.75;;;11.48;;
59930;SDS011;45790;51.538;6.736;2023-04-19T00:45:21;14.77;;;10.90;;
59930;SDS011;45790;51.538;6.736;2023-04-19T00:47:46;14.63;;;11.25;;
59930;SDS011;45790;51.538;6.736;2023-04-19T00:50:12;17.50;;;11.18;;
59930;SDS011;45790;51.538;6.736;2023-04-19T00:52:37;17.05;;;10.95;;
59930;SDS011;45790;51.538;6.736;2023-04-19T00:55:03;16.40;;;11.27;;
59930;SDS011;45790;51.538;6.736;2023-04-19T00:57:28;16.70;;;11.45;;
59930;SDS011;45790;51.538;6.736;2023-04-19T00:59:53;15.57;;;11.38;;
59930;SDS011;45790;51.538;6.736;2023-04-19T01:02:19;15.38;;;10.77;;
59930;SDS011;45790;51.538;6.736;2023-04-19T01:04:45;15.60;;;11.60;;
59930;SDS011;45790;51.538;6.736;2023-04-19T01:07:10;16.63;;;11.67;;
59930;SDS011;45790;51.538;6.736;2023-04-19T01:09:38;15.10;;;11.50;;
59930;SDS011;45790;51.538;6.736;2023-04-19T01:12:04;18.17;;;12.13;;
59930;SDS011;45790;51.538;6.736;2023-04-19T01:14:29;16.33;;;11.50;;
59930;SDS011;45790;51.538;6.736;2023-04-19T01:16:55;16.90;;;11.63;;
59930;SDS011;45790;51.538;6.736;2023-04-19T01:19:20;17.80;;;11.95;;
59930;SDS011;45790;51.538;6.736;2023-04-19T01:21:46;16.60;;;11.50;;
59930;SDS011;45790;51.538;6.736;2023-04-19T01:24:11;17.60;;;11.38;;
59930;SDS011;45790;51.538;6.736;2023-04-19T01:26:36;15.38;;;11.38;;
59930;SDS011;45790;51.538;6.736;2023-04-19T01:29:01;15.57;;;10.50;;
59930;SDS011;45790;51.538;6.736;2023-04-19T01:31:27;16.52;;;11.70;;
59930;SDS011;45790;51.538;6.736;2023-04-19T01:33:52;15.40;;;11.17;;
59930;SDS011;45790;51.538;6.736;2023-04-19T01:36:17;15.03;;;11.33;;
59930;SDS011;45790;51.538;6.736;2023-04-19T01:38:42;15.45;;;11.88;;
59930;SDS011;45790;51.538;6.736;2023-04-19T01:41:07;15.05;;;11.20;;
59930;SDS011;45790;51.538;6.736;2023-04-19T01:43:33;16.02;;;11.13;;
59930;SDS011;45790;51.538;6.736;2023-04-19T01:45:58;18.98;;;11.05;;
59930;SDS011;45790;51.538;6.736;2023-04-19T01:48:23;16.83;;;11.07;;
59930;SDS011;45790;51.538;6.736;2023-04-19T01:50:48;15.10;;;10.88;;
59930;SDS011;45790;51.538;6.736;2023-04-19T01:53:14;17.02;;;11.57;;
59930;SDS011;45790;51.538;6.736;2023-04-19T01:55:39;14.57;;;10.52;;
59930;SDS011;45790;51.538;6.736;2023-04-19T01:58:04;14.80;;;9.93;;
59930;SDS011;45790;51.538;6.736;2023-04-19T02:00:29;13.55;;;10.00;;
59930;SDS011;45790;51.538;6.736;2023-04-19T02:02:54;17.77;;;11.18;;
59930;SDS011;45790;51.538;6.736;2023-04-19T02:05:20;13.02;;;9.50;;
59930;SDS011;45790;51.538;6.736;2023-04-19T02:07:45;15.40;;;10.38;;
59930;SDS011;45790;51.538;6.736;2023-04-19T02:10:10;14.85;;;10.25;;
59930;SDS011;45790;51.538;6.736;2023-04-19T02:12:36;17.65;;;10.98;;
59930;SDS011;45790;51.538;6.736;2023-04-19T02:15:01;15.00;;;10.40;;
59930;SDS011;45790;51.538;6.736;2023-04-19T02:17:27;14.13;;;10.25;;
59930;SDS011;45790;51.538;6.736;2023-04-19T02:19:52;17.08;;;9.80;;
59930;SDS011;45790;51.538;6.736;2023-04-19T02:22:18;14.02;;;9.85;;
59930;SDS011;45790;51.538;6.736;2023-04-19T02:24:43;12.45;;;9.77;;
59930;SDS011;45790;51.538;6.736;2023-04-19T02:27:08;15.85;;;9.55;;
59930;SDS011;45790;51.538;6.736;2023-04-19T02:29:34;13.38;;;9.55;;
59930;SDS011;45790;51.538;6.736;2023-04-19T02:31:59;13.07;;;9.25;;
59930;SDS011;45790;51.538;6.736;2023-04-19T02:34:26;14.90;;;9.30;;
59930;SDS011;45790;51.538;6.736;2023-04-19T02:36:51;13.88;;;9.50;;
59930;SDS011;45790;51.538;6.736;2023-04-19T02:39:16;13.85;;;9.15;;
59930;SDS011;45790;51.538;6.736;2023-04-19T02:41:41;16.77;;;8.82;;
59930;SDS011;45790;51.538;6.736;2023-04-19T02:44:07;13.00;;;8.32;;
59930;SDS011;45790;51.538;6.736;2023-04-19T02:46:32;12.43;;;8.85;;
59930;SDS011;45790;51.538;6.736;2023-04-19T02:48:59;12.38;;;8.48;;
59930;SDS011;45790;51.538;6.736;2023-04-19T02:51:24;11.48;;;8.07;;
59930;SDS011;45790;51.538;6.736;2023-04-19T02:53:51;12.55;;;8.10;;
59930;SDS011;45790;51.538;6.736;2023-04-19T02:56:16;13.07;;;8.50;;
59930;SDS011;45790;51.538;6.736;2023-04-19T02:58:41;11.73;;;8.43;;
59930;SDS011;45790;51.538;6.736;2023-04-19T03:01:06;10.52;;;7.13;;
59930;SDS011;45790;51.538;6.736;2023-04-19T03:03:31;10.48;;;7.43;;
59930;SDS011;45790;51.538;6.736;2023-04-19T03:05:57;10.80;;;7.33;;
59930;SDS011;45790;51.538;6.736;2023-04-19T03:08:22;10.33;;;7.43;;
59930;SDS011;45790;51.538;6.736;2023-04-19T03:10:47;12.55;;;7.80;;
59930;SDS011;45790;51.538;6.736;2023-04-19T03:13:12;11.73;;;8.30;;
59930;SDS011;45790;51.538;6.736;2023-04-19T03:15:37;14.67;;;7.63;;
59930;SDS011;45790;51.538;6.736;2023-04-19T03:18:02;9.85;;;7.38;;
59930;SDS011;45790;51.538;6.736;2023-04-19T03:20:28;11.43;;;7.05;;
59930;SDS011;45790;51.538;6.736;2023-04-19T03:22:53;10.63;;;7.23;;
59930;SDS011;45790;51.538;6.736;2023-04-19T03:25:18;10.93;;;7.03;;
59930;SDS011;45790;51.538;6.736;2023-04-19T03:27:43;11.95;;;7.07;;
59930;SDS011;45790;51.538;6.736;2023-04-19T03:30:10;9.68;;;6.93;;
59930;SDS011;45790;51.538;6.736;2023-04-19T03:32:35;10.57;;;6.70;;
59930;SDS011;45790;51.538;6.736;2023-04-19T03:35:00;9.48;;;7.22;;
59930;SDS011;45790;51.538;6.736;2023-04-19T03:37:26;10.75;;;6.97;;
59930;SDS011;45790;51.538;6.736;2023-04-19T03:39:51;8.77;;;6.30;;
59930;SDS011;45790;51.538;6.736;2023-04-19T03:42:16;9.83;;;6.70;;
59930;SDS011;45790;51.538;6.736;2023-04-19T03:44:41;7.83;;;6.00;;
59930;SDS011;45790;51.538;6.736;2023-04-19T03:47:06;10.15;;;6.20;;
59930;SDS011;45790;51.538;6.736;2023-04-19T03:49:32;7.23;;;5.67;;
59930;SDS011;45790;51.538;6.736;2023-04-19T03:51:57;10.27;;;5.65;;
59930;SDS011;45790;51.538;6.736;2023-04-19T03:54:22;8.47;;;5.70;;
59930;SDS011;45790;51.538;6.736;2023-04-19T03:56:47;9.02;;;5.55;;
59930;SDS011;45790;51.538;6.736;2023-04-19T03:59:12;9.83;;;5.97;;
59930;SDS011;45790;51.538;6.736;2023-04-19T04:01:37;8.13;;;5.40;;
59930;SDS011;45790;51.538;6.736;2023-04-19T04:04:08;8.48;;;5.65;;
59930;SDS011;45790;51.538;6.736;2023-04-19T04:06:34;8.02;;;4.75;;
59930;SDS011;45790;51.538;6.736;2023-04-19T04:08:59;9.20;;;5.43;;
59930;SDS011;45790;51.538;6.736;2023-04-19T04:11:24;7.45;;;5.40;;
59930;SDS011;45790;51.538;6.736;2023-04-19T04:13:50;8.48;;;4.90;;
59930;SDS011;45790;51.538;6.736;2023-04-19T04:16:15;7.37;;;5.10;;
59930;SDS011;45790;51.538;6.736;2023-04-19T04:18:40;9.55;;;5.03;;
59930;SDS011;45790;51.538;6.736;2023-04-19T04:21:05;7.40;;;5.25;;
59930;SDS011;45790;51.538;6.736;2023-04-19T04:23:31;8.35;;;5.43;;
59930;SDS011;45790;51.538;6.736;2023-04-19T04:25:58;10.35;;;5.55;;
59930;SDS011;45790;51.538;6.736;2023-04-19T04:28:24;7.88;;;4.90;;
59930;SDS011;45790;51.538;6.736;2023-04-19T04:30:50;10.40;;;5.30;;
59930;SDS011;45790;51.538;6.736;2023-04-19T04:33:15;7.07;;;5.03;;
59930;SDS011;45790;51.538;6.736;2023-04-19T04:35:41;7.82;;;5.35;;
59930;SDS011;45790;51.538;6.736;2023-04-19T04:38:07;9.55;;;5.63;;
59930;SDS011;45790;51.538;6.736;2023-04-19T04:40:33;8.82;;;5.18;;
59930;SDS011;45790;51.538;6.736;2023-04-19T04:42:58;7.35;;;5.28;;
59930;SDS011;45790;51.538;6.736;2023-04-19T04:45:25;11.18;;;5.07;;
59930;SDS011;45790;51.538;6.736;2023-04-19T04:47:50;7.88;;;4.93;;
59930;SDS011;45790;51.538;6.736;2023-04-19T04:50:15;9.35;;;5.22;;
59930;SDS011;45790;51.538;6.736;2023-04-19T04:52:41;9.13;;;4.80;;
59930;SDS011;45790;51.538;6.736;2023-04-19T04:55:06;8.82;;;5.13;;
59930;SDS011;45790;51.538;6.736;2023-04-19T04:57:31;9.07;;;6.00;;
59930;SDS011;45790;51.538;6.736;2023-04-19T04:59:56;8.93;;;4.85;;
59930;SDS011;45790;51.538;6.736;2023-04-19T05:02:22;9.50;;;5.40;;
59930;SDS011;45790;51.538;6.736;2023-04-19T05:04:47;8.23;;;5.35;;
59930;SDS011;45790;51.538;6.736;2023-04-19T05:07:13;12.77;;;5.10;;
59930;SDS011;45790;51.538;6.736;2023-04-19T05:09:38;8.45;;;5.72;;
59930;SDS011;45790;51.538;6.736;2023-04-19T05:12:03;8.43;;;5.27;;
59930;SDS011;45790;51.538;6.736;2023-04-19T05:14:28;7.57;;;5.30;;
59930;SDS011;45790;51.538;6.736;2023-04-19T05:16:54;7.70;;;5.03;;
59930;SDS011;45790;51.538;6.736;2023-04-19T05:19:19;8.77;;;5.60;;
59930;SDS011;45790;51.538;6.736;2023-04-19T05:21:44;9.52;;;5.45;;
59930;SDS011;45790;51.538;6.736;2023-04-19T05:24:09;8.43;;;5.13;;
59930;SDS011;45790;51.538;6.736;2023-04-19T05:26:35;9.20;;;5.43;;
59930;SDS011;45790;51.538;6.736;2023-04-19T05:29:00;8.82;;;5.43;;
59930;SDS011;45790;51.538;6.736;2023-04-19T05:31:25;10.00;;;5.78;;
59930;SDS011;45790;51.538;6.736;2023-04-19T05:33:50;7.65;;;5.40;;
59930;SDS011;45790;51.538;6.736;2023-04-19T05:36:16;11.20;;;4.97;;
59930;SDS011;45790;51.538;6.736;2023-04-19T05:38:41;10.32;;;5.72;;
59930;SDS011;45790;51.538;6.736;2023-04-19T05:41:06;8.97;;;5.30;;
59930;SDS011;45790;51.538;6.736;2023-04-19T05:43:31;8.32;;;5.22;;
59930;SDS011;45790;51.538;6.736;2023-04-19T05:45:56;9.37;;;5.80;;
59930;SDS011;45790;51.538;6.736;2023-04-19T05:48:22;8.48;;;5.43;;
59930;SDS011;45790;51.538;6.736;2023-04-19T05:50:47;9.55;;;5.65;;
59930;SDS011;45790;51.538;6.736;2023-04-19T05:53:12;10.00;;;5.20;;
59930;SDS011;45790;51.538;6.736;2023-04-19T05:55:37;10.53;;;5.53;;
59930;SDS011;45790;51.538;6.736;2023-04-19T05:58:02;9.30;;;5.28;;
59930;SDS011;45790;51.538;6.736;2023-04-19T06:00:27;10.65;;;5.07;;
59930;SDS011;45790;51.538;6.736;2023-04-19T06:02:53;8.68;;;5.20;;
59930;SDS011;45790;51.538;6.736;2023-04-19T06:05:18;7.97;;;5.13;;
59930;SDS011;45790;51.538;6.736;2023-04-19T06:07:43;8.85;;;5.00;;
59930;SDS011;45790;51.538;6.736;2023-04-19T06:10:08;9.40;;;4.80;;
59930;SDS011;45790;51.538;6.736;2023-04-19T06:12:34;8.07;;;4.57;;
59930;SDS011;45790;51.538;6.736;2023-04-19T06:14:59;9.65;;;4.93;;
59930;SDS011;45790;51.538;6.736;2023-04-19T06:17:24;9.90;;;4.20;;
59930;SDS011;45790;51.538;6.736;2023-04-19T06:19:50;9.32;;;4.68;;
59930;SDS011;45790;51.538;6.736;2023-04-19T06:22:15;6.97;;;4.28;;
59930;SDS011;45790;51.538;6.736;2023-04-19T06:24:40;7.37;;;4.33;;
59930;SDS011;45790;51.538;6.736;2023-04-19T06:27:06;8.57;;;4.43;;
59930;SDS011;45790;51.538;6.736;2023-04-19T06:29:31;7.53;;;4.10;;
59930;SDS011;45790;51.538;6.736;2023-04-19T06:31:56;8.18;;;4.78;;
59930;SDS011;45790;51.538;6.736;2023-04-19T06:34:21;9.38;;;4.63;;
59930;SDS011;45790;51.538;6.736;2023-04-19T06:36:46;8.95;;;4.15;;
59930;SDS011;45790;51.538;6.736;2023-04-19T06:39:12;7.75;;;4.10;;
59930;SDS011;45790;51.538;6.736;2023-04-19T06:41:37;7.07;;;4.43;;
59930;SDS011;45790;51.538;6.736;2023-04-19T06:44:02;7.57;;;4.17;;
59930;SDS011;45790;51.538;6.736;2023-04-19T06:46:27;9.35;;;4.43;;
59930;SDS011;45790;51.538;6.736;2023-04-19T06:48:52;8.05;;;3.80;;
59930;SDS011;45790;51.538;6.736;2023-04-19T06:51:18;10.77;;;4.63;;
59930;SDS011;45790;51.538;6.736;2023-04-19T06:53:43;9.27;;;4.57;;
59930;SDS011;45790;51.538;6.736;2023-04-19T06:56:08;8.63;;;4.28;;
59930;SDS011;45790;51.538;6.736;2023-04-19T06:58:34;5.72;;;3.67;;
59930;SDS011;45790;51.538;6.736;2023-04-19T07:00:59;12.38;;;3.50;;
59930;SDS011;45790;51.538;6.736;2023-04-19T07:03:28;6.40;;;3.58;;
59930;SDS011;45790;51.538;6.736;2023-04-19T07:05:53;8.20;;;3.53;;
59930;SDS011;45790;51.538;6.736;2023-04-19T07:08:20;5.57;;;3.42;;
59930;SDS011;45790;51.538;6.736;2023-04-19T07:10:45;8.30;;;4.13;;
59930;SDS011;45790;51.538;6.736;2023-04-19T07:13:10;7.63;;;3.70;;
59930;SDS011;45790;51.538;6.736;2023-04-19T07:15:36;6.35;;;3.53;;
59930;SDS011;45790;51.538;6.736;2023-04-19T07:18:01;7.55;;;3.53;;
59930;SDS011;45790;51.538;6.736;2023-04-19T07:20:26;6.80;;;3.70;;
59930;SDS011;45790;51.538;6.736;2023-04-19T07:22:51;9.50;;;3.50;;
59930;SDS011;45790;51.538;6.736;2023-04-19T07:25:17;10.27;;;3.70;;
59930;SDS011;45790;51.538;6.736;2023-04-19T07:27:42;5.53;;;3.80;;
59930;SDS011;45790;51.538;6.736;2023-04-19T07:30:07;8.33;;;3.43;;
59930;SDS011;45790;51.538;6.736;2023-04-19T07:32:32;7.30;;;3.83;;
59930;SDS011;45790;51.538;6.736;2023-04-19T07:34:57;6.10;;;3.78;;
59930;SDS011;45790;51.538;6.736;2023-04-19T07:37:23;6.70;;;3.45;;
59930;SDS011;45790;51.538;6.736;2023-04-19T07:39:48;9.93;;;3.70;;
59930;SDS011;45790;51.538;6.736;2023-04-19T07:42:13;5.72;;;3.55;;
59930;SDS011;45790;51.538;6.736;2023-04-19T07:44:38;6.22;;;3.58;;
59930;SDS011;45790;51.538;6.736;2023-04-19T07:47:04;7.20;;;3.22;;
59930;SDS011;45790;51.538;6.736;2023-04-19T07:49:31;8.80;;;4.25;;
59930;SDS011;45790;51.538;6.736;2023-04-19T07:52:01;7.60;;;3.42;;
59930;SDS011;45790;51.538;6.736;2023-04-19T07:54:26;6.85;;;3.17;;
59930;SDS011;45790;51.538;6.736;2023-04-19T07:56:52;6.50;;;3.43;;
59930;SDS011;45790;51.538;6.736;2023-04-19T07:59:17;5.35;;;3.13;;
59930;SDS011;45790;51.538;6.736;2023-04-19T08:01:45;6.80;;;3.33;;
59930;SDS011;45790;51.538;6.736;2023-04-19T08:04:10;6.05;;;3.13;;
59930;SDS011;45790;51.538;6.736;2023-04-19T08:06:36;6.07;;;3.33;;
59930;SDS011;45790;51.538;6.736;2023-04-19T08:11:35;7.50;;;2.95;;
59930;SDS011;45790;51.538;6.736;2023-04-19T08:14:00;5.67;;;3.00;;
59930;SDS011;45790;51.538;6.736;2023-04-19T08:16:25;5.43;;;3.20;;
59930;SDS011;45790;51.538;6.736;2023-04-19T08:18:52;5.55;;;2.72;;
59930;SDS011;45790;51.538;6.736;2023-04-19T08:21:17;7.53;;;3.08;;
59930;SDS011;45790;51.538;6.736;2023-04-19T08:23:42;9.77;;;3.03;;
59930;SDS011;45790;51.538;6.736;2023-04-19T08:26:07;7.30;;;3.22;;
59930;SDS011;45790;51.538;6.736;2023-04-19T08:28:32;5.18;;;2.50;;
59930;SDS011;45790;51.538;6.736;2023-04-19T08:30:58;6.40;;;2.92;;
59930;SDS011;45790;51.538;6.736;2023-04-19T08:33:23;5.85;;;2.47;;
59930;SDS011;45790;51.538;6.736;2023-04-19T08:35:51;7.68;;;2.63;;
59930;SDS011;45790;51.538;6.736;2023-04-19T08:38:16;8.53;;;2.70;;
59930;SDS011;45790;51.538;6.736;2023-04-19T08:40:45;4.03;;;2.33;;
59930;SDS011;45790;51.538;6.736;2023-04-19T08:43:11;6.53;;;2.92;;
59930;SDS011;45790;51.538;6.736;2023-04-19T08:45:36;7.97;;;2.80;;
59930;SDS011;45790;51.538;6.736;2023-04-19T08:48:03;5.50;;;2.38;;
59930;SDS011;45790;51.538;6.736;2023-04-19T08:50:29;8.25;;;3.30;;
59930;SDS011;45790;51.538;6.736;2023-04-19T08:52:54;9.30;;;2.80;;
59930;SDS011;45790;51.538;6.736;2023-04-19T08:55:19;7.13;;;2.47;;
59930;SDS011;45790;51.538;6.736;2023-04-19T08:57:45;4.03;;;2.60;;
59930;SDS011;45790;51.538;6.736;2023-04-19T09:00:10;3.88;;;2.15;;
59930;SDS011;45790;51.538;6.736;2023-04-19T09:02:46;6.38;;;2.30;;
59930;SDS011;45790;51.538;6.736;2023-04-19T09:05:14;3.65;;;2.20;;
59930;SDS011;45790;51.538;6.736;2023-04-19T09:07:40;7.07;;;2.20;;
59930;SDS011;45790;51.538;6.736;2023-04-19T09:12:32;4.45;;;2.47;;
59930;SDS011;45790;51.538;6.736;2023-04-19T09:14:59;4.10;;;2.10;;
59930;SDS011;45790;51.538;6.736;2023-04-19T09:17:25;3.72;;;2.10;;
59930;SDS011;45790;51.538;6.736;2023-04-19T09:19:50;5.22;;;2.00;;
59930;SDS011;45790;51.538;6.736;2023-04-19T09:22:15;3.83;;;2.10;;
59930;SDS011;45790;51.538;6.736;2023-04-19T09:24:40;3.33;;;1.95;;
59930;SDS011;45790;51.538;6.736;2023-04-19T09:27:06;8.77;;;2.30;;
59930;SDS011;45790;51.538;6.736;2023-04-19T09:29:31;4.13;;;1.63;;
59930;SDS011;45790;51.538;6.736;2023-04-19T09:31:57;4.93;;;1.73;;
59930;SDS011;45790;51.538;6.736;2023-04-19T09:34:22;3.90;;;1.70;;
59930;SDS011;45790;51.538;6.736;2023-04-19T09:36:48;4.82;;;1.67;;
59930;SDS011;45790;51.538;6.736;2023-04-19T09:39:13;6.82;;;2.25;;
59930;SDS011;45790;51.538;6.736;2023-04-19T09:41:52;3.20;;;1.63;;
59930;SDS011;45790;51.538;6.736;2023-04-19T09:44:17;6.10;;;1.60;;
59930;SDS011;45790;51.538;6.736;2023-04-19T09:46:43;4.78;;;1.38;;
59930;SDS011;45790;51.538;6.736;2023-04-19T09:51:42;3.58;;;1.95;;
59930;SDS011;45790;51.538;6.736;2023-04-19T09:54:08;4.18;;;1.80;;
59930;SDS011;45790;51.538;6.736;2023-04-19T09:56:34;7.28;;;2.20;;
59930;SDS011;45790;51.538;6.736;2023-04-19T09:59:01;4.00;;;1.60;;
59930;SDS011;45790;51.538;6.736;2023-04-19T10:01:26;3.33;;;1.83;;
59930;SDS011;45790;51.538;6.736;2023-04-19T10:03:52;2.90;;;1.55;;
59930;SDS011;45790;51.538;6.736;2023-04-19T10:06:18;3.95;;;1.58;;
59930;SDS011;45790;51.538;6.736;2023-04-19T10:08:44;3.08;;;1.80;;
59930;SDS011;45790;51.538;6.736;2023-04-19T10:11:10;3.33;;;2.13;;
59930;SDS011;45790;51.538;6.736;2023-04-19T10:13:36;9.40;;;2.00;;
59930;SDS011;45790;51.538;6.736;2023-04-19T10:16:01;5.20;;;2.03;;
59930;SDS011;45790;51.538;6.736;2023-04-19T10:18:27;3.60;;;1.92;;
59930;SDS011;45790;51.538;6.736;2023-04-19T10:20:57;3.63;;;1.85;;
59930;SDS011;45790;51.538;6.736;2023-04-19T10:23:23;3.90;;;2.10;;
59930;SDS011;45790;51.538;6.736;2023-04-19T10:25:54;4.40;;;2.30;;
59930;SDS011;45790;51.538;6.736;2023-04-19T10:28:19;4.55;;;1.90;;
59930;SDS011;45790;51.538;6.736;2023-04-19T10:30:58;4.30;;;2.03;;
59930;SDS011;45790;51.538;6.736;2023-04-19T10:33:25;7.25;;;2.08;;
59930;SDS011;45790;51.538;6.736;2023-04-19T10:35:54;3.13;;;1.90;;
59930;SDS011;45790;51.538;6.736;2023-04-19T10:38:19;6.55;;;2.10;;
59930;SDS011;45790;51.538;6.736;2023-04-19T10:43:25;3.60;;;2.10;;
59930;SDS011;45790;51.538;6.736;2023-04-19T10:45:51;5.95;;;2.13;;
59930;SDS011;45790;51.538;6.736;2023-04-19T10:56:07;11.05;;;2.33;;
59930;SDS011;45790;51.538;6.736;2023-04-19T10:58:42;3.77;;;2.00;;
59930;SDS011;45790;51.538;6.736;2023-04-19T11:04:03;5.82;;;2.20;;
59930;SDS011;45790;51.538;6.736;2023-04-19T11:06:28;4.07;;;1.75;;
59930;SDS011;45790;51.538;6.736;2023-04-19T11:08:54;3.58;;;2.08;;
59930;SDS011;45790;51.538;6.736;2023-04-19T11:11:20;4.22;;;2.13;;
59930;SDS011;45790;51.538;6.736;2023-04-19T11:13:46;7.75;;;2.50;;
59930;SDS011;45790;51.538;6.736;2023-04-19T11:16:12;6.47;;;2.05;;
59930;SDS011;45790;51.538;6.736;2023-04-19T11:18:37;4.95;;;1.95;;
59930;SDS011;45790;51.538;6.736;2023-04-19T11:21:02;5.55;;;2.15;;
59930;SDS011;45790;51.538;6.736;2023-04-19T11:23:28;5.45;;;2.10;;
59930;SDS011;45790;51.538;6.736;2023-04-19T11:25:53;5.77;;;2.30;;
59930;SDS011;45790;51.538;6.736;2023-04-19T11:28:19;6.20;;;2.03;;
59930;SDS011;45790;51.538;6.736;2023-04-19T11:30:45;4.50;;;2.17;;
59930;SDS011;45790;51.538;6.736;2023-04-19T11:33:11;8.43;;;2.10;;
59930;SDS011;45790;51.538;6.736;2023-04-19T11:35:36;5.05;;;2.10;;
59930;SDS011;45790;51.538;6.736;2023-04-19T11:38:01;6.50;;;2.65;;
59930;SDS011;45790;51.538;6.736;2023-04-19T11:40:29;6.32;;;2.30;;
59930;SDS011;45790;51.538;6.736;2023-04-19T11:45:23;4.75;;;2.58;;
59930;SDS011;45790;51.538;6.736;2023-04-19T11:47:49;6.28;;;2.53;;
59930;SDS011;45790;51.538;6.736;2023-04-19T11:53:01;3.85;;;2.30;;
59930;SDS011;45790;51.538;6.736;2023-04-19T11:55:33;5.70;;;2.53;;
59930;SDS011;45790;51.538;6.736;2023-04-19T11:57:58;4.47;;;2.20;;
59930;SDS011;45790;51.538;6.736;2023-04-19T12:00:27;6.03;;;2.77;;
59930;SDS011;45790;51.538;6.736;2023-04-19T12:02:53;5.95;;;2.67;;
59930;SDS011;45790;51.538;6.736;2023-04-19T12:05:18;5.78;;;2.30;;
59930;SDS011;45790;51.538;6.736;2023-04-19T12:08:00;7.63;;;2.30;;
59930;SDS011;45790;51.538;6.736;2023-04-19T12:10:25;6.15;;;2.53;;
59930;SDS011;45790;51.538;6.736;2023-04-19T12:12:50;6.53;;;2.45;;
59930;SDS011;45790;51.538;6.736;2023-04-19T12:15:16;6.73;;;2.23;;
59930;SDS011;45790;51.538;6.736;2023-04-19T12:17:57;4.45;;;2.17;;
59930;SDS011;45790;51.538;6.736;2023-04-19T12:20:29;8.73;;;2.97;;
59930;SDS011;45790;51.538;6.736;2023-04-19T12:22:54;6.07;;;2.60;;
59930;SDS011;45790;51.538;6.736;2023-04-19T12:25:20;7.50;;;2.70;;
59930;SDS011;45790;51.538;6.736;2023-04-19T12:27:45;6.00;;;2.60;;
59930;SDS011;45790;51.538;6.736;2023-04-19T12:30:10;8.05;;;2.65;;
59930;SDS011;45790;51.538;6.736;2023-04-19T12:32:35;5.97;;;2.40;;
59930;SDS011;45790;51.538;6.736;2023-04-19T12:35:01;6.20;;;2.85;;
59930;SDS011;45790;51.538;6.736;2023-04-19T12:37:26;8.00;;;2.60;;
59930;SDS011;45790;51.538;6.736;2023-04-19T12:39:51;5.07;;;2.27;;
59930;SDS011;45790;51.538;6.736;2023-04-19T12:42:16;4.80;;;2.33;;
59930;SDS011;45790;51.538;6.736;2023-04-19T12:44:41;6.95;;;2.55;;
59930;SDS011;45790;51.538;6.736;2023-04-19T12:47:07;6.25;;;2.50;;
59930;SDS011;45790;51.538;6.736;2023-04-19T12:49:32;11.10;;;2.47;;
59930;SDS011;45790;51.538;6.736;2023-04-19T12:52:00;6.82;;;2.30;;
59930;SDS011;45790;51.538;6.736;2023-04-19T12:54:26;5.25;;;2.28;;
59930;SDS011;45790;51.538;6.736;2023-04-19T12:56:51;4.43;;;2.30;;
59930;SDS011;45790;51.538;6.736;2023-04-19T12:59:16;3.43;;;2.37;;
59930;SDS011;45790;51.538;6.736;2023-04-19T13:01:42;4.82;;;2.55;;
59930;SDS011;45790;51.538;6.736;2023-04-19T13:04:07;5.32;;;2.70;;
59930;SDS011;45790;51.538;6.736;2023-04-19T13:06:35;5.43;;;2.72;;
59930;SDS011;45790;51.538;6.736;2023-04-19T13:09:00;5.95;;;2.88;;
59930;SDS011;45790;51.538;6.736;2023-04-19T13:11:26;5.53;;;2.80;;
59930;SDS011;45790;51.538;6.736;2023-04-19T13:13:51;5.70;;;2.80;;
59930;SDS011;45790;51.538;6.736;2023-04-19T13:16:16;7.05;;;3.10;;
59930;SDS011;45790;51.538;6.736;2023-04-19T13:18:42;6.28;;;2.85;;
59930;SDS011;45790;51.538;6.736;2023-04-19T13:21:07;5.40;;;2.70;;
59930;SDS011;45790;51.538;6.736;2023-04-19T13:23:32;7.33;;;2.90;;
59930;SDS011;45790;51.538;6.736;2023-04-19T13:25:57;10.00;;;3.30;;
59930;SDS011;45790;51.538;6.736;2023-04-19T13:28:22;5.25;;;3.10;;
59930;SDS011;45790;51.538;6.736;2023-04-19T13:30:48;6.97;;;3.00;;
59930;SDS011;45790;51.538;6.736;2023-04-19T13:33:13;7.40;;;2.97;;
59930;SDS011;45790;51.538;6.736;2023-04-19T13:35:38;5.45;;;3.08;;
59930;SDS011;45790;51.538;6.736;2023-04-19T13:38:04;4.28;;;2.70;;
59930;SDS011;45790;51.538;6.736;2023-04-19T13:40:29;5.57;;;2.83;;
59930;SDS011;45790;51.538;6.736;2023-04-19T13:42:54;4.33;;;2.77;;
59930;SDS011;45790;51.538;6.736;2023-04-19T13:45:20;7.13;;;2.70;;
59930;SDS011;45790;51.538;6.736;2023-04-19T13:47:46;8.10;;;2.60;;
59930;SDS011;45790;51.538;6.736;2023-04-19T13:50:11;4.45;;;2.67;;
59930;SDS011;45790;51.538;6.736;2023-04-19T13:52:36;5.30;;;2.75;;
59930;SDS011;45790;51.538;6.736;2023-04-19T13:55:02;9.07;;;2.60;;
59930;SDS011;45790;51.538;6.736;2023-04-19T13:57:27;4.40;;;2.53;;
59930;SDS011;45790;51.538;6.736;2023-04-19T13:59:52;4.67;;;2.60;;
59930;SDS011;45790;51.538;6.736;2023-04-19T14:02:17;6.47;;;2.57;;
59930;SDS011;45790;51.538;6.736;2023-04-19T14:04:43;6.78;;;2.53;;
59930;SDS011;45790;51.538;6.736;2023-04-19T14:07:08;14.52;;;2.90;;
59930;SDS011;45790;51.538;6.736;2023-04-19T14:09:34;5.15;;;2.20;;
59930;SDS011;45790;51.538;6.736;2023-04-19T14:12:02;4.63;;;2.55;;
59930;SDS011;45790;51.538;6.736;2023-04-19T14:14:28;6.78;;;2.55;;
59930;SDS011;45790;51.538;6.736;2023-04-19T14:16:53;8.80;;;2.83;;
59930;SDS011;45790;51.538;6.736;2023-04-19T14:19:19;6.25;;;2.60;;
59930;SDS011;45790;51.538;6.736;2023-04-19T14:21:44;6.65;;;2.67;;
59930;SDS011;45790;51.538;6.736;2023-04-19T14:24:09;6.88;;;2.80;;
59930;SDS011;45790;51.538;6.736;2023-04-19T14:26:35;8.05;;;2.67;;
59930;SDS011;45790;51.538;6.736;2023-04-19T14:29:00;5.65;;;2.38;;
59930;SDS011;45790;51.538;6.736;2023-04-19T14:31:25;4.90;;;2.92;;
59930;SDS011;45790;51.538;6.736;2023-04-19T14:33:50;8.38;;;2.70;;
59930;SDS011;45790;51.538;6.736;2023-04-19T14:36:16;4.88;;;2.72;;
59930;SDS011;45790;51.538;6.736;2023-04-19T14:38:41;7.45;;;2.88;;
59930;SDS011;45790;51.538;6.736;2023-04-19T14:41:06;6.20;;;2.70;;
59930;SDS011;45790;51.538;6.736;2023-04-19T14:43:31;7.20;;;2.83;;
59930;SDS011;45790;51.538;6.736;2023-04-19T14:45:57;6.32;;;2.63;;
59930;SDS011;45790;51.538;6.736;2023-04-19T14:48:23;6.00;;;2.75;;
59930;SDS011;45790;51.538;6.736;2023-04-19T14:50:48;6.30;;;2.67;;
59930;SDS011;45790;51.538;6.736;2023-04-19T14:53:14;9.77;;;2.50;;
59930;SDS011;45790;51.538;6.736;2023-04-19T14:55:39;7.18;;;2.67;;
59930;SDS011;45790;51.538;6.736;2023-04-19T14:58:04;7.70;;;2.72;;